createdAt,value
2023-08-22T00:01:05.471Z,71.91
2023-08-22T00:03:39.409Z,72.30
2023-08-22T00:06:16.248Z,72.20
2023-08-22T00:08:47.872Z,72.54
2023-08-22T00:11:24.422Z,73.02
2023-08-22T00:13:55.172Z,73.17
2023-08-22T00:19:02.425Z,73.62
2023-08-22T00:21:34.431Z,73.75
2023-08-22T00:24:05.263Z,74.68
2023-08-22T00:26:38.131Z,74.64
2023-08-22T00:29:08.648Z,75.57
2023-08-22T00:31:38.417Z,76.03
2023-08-22T00:34:10.255Z,76.24
2023-08-22T00:36:40.295Z,76.33
2023-08-22T00:39:14.038Z,76.88
2023-08-22T00:41:43.753Z,76.32
2023-08-22T00:44:11.642Z,76.90
2023-08-22T00:46:46.990Z,77.53
2023-08-22T00:49:18.597Z,78.79
2023-08-22T00:51:51.759Z,79.14
2023-08-22T00:54:23.465Z,79.43
2023-08-22T00:56:59.630Z,78.49
2023-08-22T00:59:31.155Z,78.46
2023-08-22T01:02:07.989Z,77.93
2023-08-22T01:04:40.277Z,77.35
2023-08-22T01:07:18.865Z,77.89
2023-08-22T01:09:56.762Z,77.70
2023-08-22T01:12:37.813Z,78.78
2023-08-22T01:15:16.021Z,78.99
2023-08-22T01:17:52.996Z,78.01
2023-08-22T01:20:30.365Z,77.05
2023-08-22T01:25:41.379Z,76.04
2023-08-22T01:28:18.046Z,76.52
2023-08-22T01:30:54.644Z,76.54
2023-08-22T01:36:11.452Z,76.29
2023-08-22T01:38:51.809Z,77.02
2023-08-22T01:41:30.322Z,77.17
2023-08-22T01:44:04.105Z,77.53
2023-08-22T01:46:39.264Z,77.67
2023-08-22T01:49:15.754Z,77.83
2023-08-22T01:51:48.648Z,78.34
2023-08-22T01:54:29.893Z,78.41
2023-08-22T01:57:05.706Z,78.56
2023-08-22T01:59:36.816Z,78.75
2023-08-22T02:02:08.802Z,78.88
2023-08-22T02:04:38.417Z,79.05
2023-08-22T02:07:12.072Z,79.19
2023-08-22T02:09:46.792Z,79.25
2023-08-22T02:12:21.964Z,78.95
2023-08-22T02:14:55.572Z,79.78
2023-08-22T02:17:37.315Z,79.72
2023-08-22T02:20:14.657Z,80.58
2023-08-22T02:22:45.789Z,80.94
2023-08-22T02:25:17.422Z,81.43
2023-08-22T02:27:47.173Z,81.03
2023-08-22T02:30:22.159Z,81.03
2023-08-22T02:32:52.047Z,80.80
2023-08-22T02:35:22.682Z,81.22
2023-08-22T02:37:58.648Z,81.30
2023-08-22T02:40:30.587Z,81.86
2023-08-22T02:43:07.891Z,82.17
2023-08-22T02:45:39.736Z,82.11
2023-08-22T02:48:10.024Z,82.66
2023-08-22T02:50:46.535Z,83.07
2023-08-22T02:53:16.974Z,83.12
2023-08-22T02:55:52.554Z,83.28
2023-08-22T02:58:22.471Z,82.58
2023-08-22T03:00:54.986Z,82.35
2023-08-22T03:03:26.902Z,81.92
2023-08-22T03:06:01.955Z,81.08
2023-08-22T03:08:33.524Z,80.90
2023-08-22T03:11:11.908Z,80.31
2023-08-22T03:13:42.023Z,79.46
2023-08-22T03:16:12.259Z,79.26
2023-08-22T03:18:50.416Z,79.51
2023-08-22T03:21:27.035Z,78.94
2023-08-22T03:24:05.999Z,78.53
2023-08-22T03:26:37.837Z,78.03
2023-08-22T03:29:13.184Z,77.37
2023-08-22T03:34:21.643Z,77.25
2023-08-22T03:36:59.400Z,76.73
2023-08-22T03:39:32.742Z,75.83
2023-08-22T03:42:15.731Z,75.11
2023-08-22T03:44:49.268Z,74.68
2023-08-22T03:47:24.954Z,74.19
2023-08-22T03:49:54.520Z,74.52
2023-08-22T03:52:25.866Z,74.58
2023-08-22T03:55:01.470Z,74.67
2023-08-22T03:57:37.490Z,74.46
2023-08-22T04:00:07.824Z,74.36
2023-08-22T04:02:55.915Z,73.84
2023-08-22T04:05:26.853Z,73.84
2023-08-22T04:08:01.169Z,73.41
2023-08-22T04:10:35.535Z,72.56
2023-08-22T04:13:09.394Z,72.10
2023-08-22T04:15:47.464Z,71.52
2023-08-22T04:18:23.386Z,71.17
2023-08-22T04:20:55.530Z,69.55
2023-08-22T04:23:27.805Z,69.27
2023-08-22T04:25:57.203Z,68.76
2023-08-22T04:28:38.096Z,67.28
2023-08-22T04:31:09.731Z,66.77
2023-08-22T04:33:45.245Z,66.43
2023-08-22T04:36:17.345Z,65.35
2023-08-22T04:38:54.185Z,64.30
2023-08-22T04:41:27.252Z,63.71
2023-08-22T04:44:13.126Z,63.94
2023-08-22T04:46:42.637Z,64.36
2023-08-22T04:49:14.694Z,64.98
2023-08-22T04:51:44.208Z,65.19
2023-08-22T04:54:18.090Z,65.19
2023-08-22T04:56:47.764Z,65.42
2023-08-22T04:59:20.088Z,64.11
2023-08-22T05:01:51.459Z,63.95
2023-08-22T05:04:24.325Z,63.07
2023-08-22T05:06:59.385Z,62.52
2023-08-22T05:09:28.808Z,62.73
2023-08-22T05:11:59.140Z,62.84
2023-08-22T05:14:37.098Z,62.61
2023-08-22T05:17:10.366Z,62.78
2023-08-22T05:19:43.865Z,63.01
2023-08-22T05:22:19.492Z,62.58
2023-08-22T05:27:40.535Z,62.40
2023-08-22T05:30:19.678Z,61.53
2023-08-22T05:32:54.253Z,60.76
2023-08-22T05:35:24.327Z,60.40
2023-08-22T05:38:00.245Z,59.50
2023-08-22T05:40:31.974Z,58.76
2023-08-22T05:43:03.468Z,58.21
2023-08-22T05:45:51.700Z,57.50
2023-08-22T05:48:26.630Z,56.18
2023-08-22T05:51:02.253Z,56.19
2023-08-22T05:53:34.160Z,55.64
2023-08-22T05:56:04.622Z,54.81
2023-08-22T05:58:40.614Z,54.19
2023-08-22T06:01:18.604Z,53.41
2023-08-22T06:03:49.864Z,52.19
2023-08-22T06:06:19.145Z,53.37
2023-08-22T06:08:48.525Z,51.53
2023-08-22T06:11:18.290Z,51.12
2023-08-22T06:13:51.169Z,50.52
2023-08-22T06:16:27.827Z,50.61
2023-08-22T06:18:58.635Z,50.85
2023-08-22T06:21:29.334Z,50.34
2023-08-22T06:24:05.673Z,50.83
2023-08-22T06:26:42.294Z,50.64
2023-08-22T06:29:12.987Z,50.50
2023-08-22T06:31:47.143Z,50.76
2023-08-22T06:34:20.451Z,50.88
2023-08-22T06:36:58.141Z,51.16
2023-08-22T06:39:30.386Z,51.04
2023-08-22T06:42:02.589Z,51.19
2023-08-22T06:44:34.358Z,51.40
2023-08-22T06:47:12.894Z,51.97
2023-08-22T06:49:44.703Z,53.22
2023-08-22T06:52:21.577Z,53.00
2023-08-22T06:54:59.326Z,53.09
2023-08-22T06:57:28.843Z,53.41
2023-08-22T06:59:59.221Z,53.49
2023-08-22T07:02:33.070Z,53.40
2023-08-22T07:05:02.698Z,53.38
2023-08-22T07:07:38.798Z,53.16
2023-08-22T07:10:18.383Z,52.87
2023-08-22T07:12:50.269Z,53.05
2023-08-22T07:15:24.442Z,52.08
2023-08-22T07:17:58.364Z,50.92
2023-08-22T07:20:28.348Z,50.54
2023-08-22T07:25:38.035Z,49.26
2023-08-22T07:28:10.445Z,48.12
2023-08-22T07:30:45.402Z,47.19
2023-08-22T07:33:17.982Z,46.86
2023-08-22T07:35:50.738Z,46.55
2023-08-22T07:38:21.079Z,44.78
2023-08-22T07:41:04.395Z,45.26
2023-08-22T07:43:35.619Z,44.62
2023-08-22T07:46:06.430Z,45.62
2023-08-22T07:48:40.423Z,45.54
2023-08-22T07:51:10.965Z,44.21
2023-08-22T07:53:42.673Z,44.06
2023-08-22T07:56:18.328Z,43.14
2023-08-22T07:58:55.348Z,43.46
2023-08-22T08:01:26.046Z,43.82
2023-08-22T08:04:00.155Z,43.71
2023-08-22T08:06:36.925Z,44.47
2023-08-22T08:09:10.440Z,43.20
2023-08-22T08:14:27.982Z,41.24
2023-08-22T08:16:59.362Z,41.02
2023-08-22T08:19:37.793Z,40.88
2023-08-22T08:22:09.439Z,40.06
2023-08-22T08:24:45.010Z,40.80
2023-08-22T08:27:15.053Z,39.38
2023-08-22T08:29:46.811Z,38.28
2023-08-22T08:32:17.985Z,38.28
2023-08-22T08:34:54.472Z,38.13
2023-08-22T08:37:26.325Z,38.12
2023-08-22T08:39:56.611Z,38.29
2023-08-22T08:42:27.479Z,38.56
2023-08-22T08:47:36.197Z,39.08
2023-08-22T08:50:09.941Z,39.55
2023-08-22T08:52:50.965Z,39.75
2023-08-22T08:55:23.768Z,39.85
2023-08-22T08:57:56.922Z,40.02
2023-08-22T09:03:13.921Z,39.02
2023-08-22T09:05:45.926Z,38.91
2023-08-22T09:08:18.382Z,38.86
2023-08-22T09:10:52.259Z,38.72
2023-08-22T09:13:41.948Z,38.31
2023-08-22T09:16:21.581Z,38.23
2023-08-22T09:19:03.607Z,38.23
2023-08-22T09:21:36.123Z,38.58
2023-08-22T09:24:15.296Z,38.71
2023-08-22T09:26:53.703Z,38.77
2023-08-22T09:29:38.010Z,39.62
2023-08-22T09:34:58.132Z,40.30
2023-08-22T09:37:41.666Z,40.96
2023-08-22T09:40:14.446Z,41.44
2023-08-22T09:42:49.224Z,42.09
2023-08-22T09:45:22.573Z,42.74
2023-08-22T09:47:56.189Z,43.07
2023-08-22T09:50:29.944Z,43.53
2023-08-22T09:53:10.511Z,44.18
2023-08-22T09:55:42.200Z,44.90
2023-08-22T09:58:13.656Z,45.92
2023-08-22T10:00:44.307Z,45.47
2023-08-22T10:03:20.883Z,46.73
2023-08-22T10:05:55.492Z,47.52
2023-08-22T10:11:15.937Z,48.80
2023-08-22T10:13:46.937Z,49.14
2023-08-22T10:16:18.780Z,48.75
2023-08-22T10:18:49.498Z,49.16
2023-08-22T10:21:20.007Z,49.74
2023-08-22T10:24:09.168Z,50.49
2023-08-22T10:27:02.246Z,51.77
2023-08-22T10:29:38.358Z,54.13
2023-08-22T10:32:25.524Z,55.40
2023-08-22T10:35:30.744Z,56.27
2023-08-22T10:38:06.319Z,57.25
2023-08-22T10:40:39.630Z,58.11
2023-08-22T10:43:10.908Z,59.04
2023-08-22T10:48:23.553Z,59.23
2023-08-22T10:50:54.840Z,59.09
2023-08-22T10:53:25.816Z,59.27
2023-08-22T10:56:18.844Z,59.41
2023-08-22T10:59:01.047Z,58.37
2023-08-22T11:01:36.444Z,58.83
2023-08-22T11:04:14.579Z,58.58
2023-08-22T11:06:53.014Z,58.50
2023-08-22T11:09:29.894Z,59.34
2023-08-22T11:12:11.854Z,59.26
2023-08-22T11:14:48.824Z,59.14
2023-08-22T11:17:19.690Z,58.64
2023-08-22T11:19:58.649Z,56.74
2023-08-22T11:22:28.936Z,55.92
2023-08-22T11:25:05.190Z,55.68
2023-08-22T11:27:40.349Z,55.25
2023-08-22T11:30:13.929Z,55.07
2023-08-22T11:32:47.911Z,55.52
2023-08-22T11:38:02.863Z,55.75
2023-08-22T11:40:38.883Z,55.99
2023-08-22T11:43:10.885Z,55.50
2023-08-22T11:45:52.765Z,55.44
2023-08-22T11:48:25.918Z,55.48
2023-08-22T11:50:55.870Z,53.53
2023-08-22T11:53:36.986Z,53.60
2023-08-22T11:56:16.783Z,53.08
2023-08-22T11:58:55.340Z,52.81
2023-08-22T12:01:32.983Z,51.85
2023-08-22T12:04:03.351Z,52.21
2023-08-22T12:06:39.647Z,52.09
2023-08-22T12:09:18.230Z,50.64
2023-08-22T12:11:54.875Z,50.21
2023-08-22T12:14:26.761Z,50.02
2023-08-22T12:16:59.366Z,50.95
2023-08-22T12:19:29.819Z,50.87
2023-08-22T12:22:06.653Z,51.51
2023-08-22T12:24:58.805Z,51.82
2023-08-22T12:30:13.808Z,53.26
2023-08-22T12:32:45.523Z,53.57
2023-08-22T12:35:24.980Z,54.13
2023-08-22T12:37:58.774Z,54.65
2023-08-22T12:40:35.869Z,54.32
2023-08-22T12:49:53.201Z,54.39
2023-08-22T12:52:22.828Z,55.12
2023-08-22T12:54:52.523Z,54.89
2023-08-22T12:57:23.243Z,55.31
2023-08-22T12:59:53.938Z,55.17
2023-08-22T13:02:28.032Z,55.71
2023-08-22T13:05:04.725Z,55.75
2023-08-22T13:10:15.108Z,56.48
2023-08-22T13:12:46.031Z,56.08
2023-08-22T13:15:16.357Z,55.49
2023-08-22T13:17:47.971Z,55.24
2023-08-22T13:20:31.764Z,55.38
2023-08-22T13:23:04.210Z,55.67
2023-08-22T13:25:44.540Z,55.79
2023-08-22T13:28:14.364Z,56.38
2023-08-22T13:30:45.229Z,57.34
2023-08-22T13:33:16.267Z,57.62
2023-08-22T13:35:54.458Z,57.53
2023-08-22T13:38:32.719Z,57.54
2023-08-22T13:41:03.517Z,58.24
2023-08-22T13:43:40.469Z,58.02
2023-08-22T13:48:47.055Z,58.29
2023-08-22T13:51:28.702Z,57.38
2023-08-22T13:54:04.092Z,57.68
2023-08-22T13:56:34.086Z,57.09
2023-08-22T14:01:50.138Z,57.04
2023-08-22T14:04:21.876Z,58.20
2023-08-22T14:06:57.093Z,59.38
2023-08-22T14:09:30.260Z,59.51
2023-08-22T14:11:59.777Z,58.96
2023-08-22T14:14:29.623Z,58.96
2023-08-22T14:17:06.118Z,58.42
2023-08-22T14:19:38.396Z,58.10
2023-08-22T14:22:11.327Z,57.43
2023-08-22T14:24:41.384Z,56.68
2023-08-22T14:27:19.176Z,56.37
2023-08-22T14:29:48.958Z,56.15
2023-08-22T14:32:18.841Z,55.75
2023-08-22T14:34:48.814Z,55.15
2023-08-22T14:37:25.945Z,55.15
2023-08-22T14:40:02.533Z,55.23
2023-08-22T14:42:34.390Z,55.64
2023-08-22T14:45:04.772Z,55.82
2023-08-22T14:47:34.991Z,55.23
2023-08-22T14:50:13.193Z,55.26
2023-08-22T14:52:45.137Z,55.33
2023-08-22T14:55:16.358Z,55.80
2023-08-22T14:57:48.666Z,56.05
2023-08-22T15:00:28.630Z,56.24
2023-08-22T15:02:58.020Z,56.10
2023-08-22T15:05:28.112Z,56.33
2023-08-22T15:08:06.391Z,57.05
2023-08-22T15:10:36.623Z,56.95
2023-08-22T15:13:06.504Z,56.87
2023-08-22T15:15:42.615Z,56.60
2023-08-22T15:18:17.593Z,57.13
2023-08-22T15:20:51.621Z,56.72
2023-08-22T15:23:26.068Z,56.80
2023-08-22T15:26:01.815Z,56.82
2023-08-22T15:28:32.349Z,56.80
2023-08-22T15:31:15.947Z,57.76
2023-08-22T15:33:45.852Z,58.59
2023-08-22T15:36:16.620Z,58.37
2023-08-22T15:38:54.443Z,59.50
2023-08-22T15:41:26.147Z,59.92
2023-08-22T15:43:59.638Z,60.45
2023-08-22T15:46:29.843Z,61.16
2023-08-22T15:49:06.421Z,62.61
2023-08-22T15:51:38.173Z,63.08
2023-08-22T15:54:10.924Z,63.25
2023-08-22T15:56:43.763Z,63.99
2023-08-22T15:59:13.616Z,65.04
2023-08-22T16:01:47.114Z,65.85
2023-08-22T16:04:17.396Z,66.46
2023-08-22T16:06:47.242Z,67.23
2023-08-22T16:09:19.127Z,68.37
2023-08-22T16:11:53.972Z,67.96
2023-08-22T16:17:02.013Z,69.75
2023-08-22T16:19:33.948Z,70.63
2023-08-22T16:22:09.559Z,71.03
2023-08-22T16:24:41.014Z,72.52
2023-08-22T16:29:57.782Z,72.92
2023-08-22T16:32:32.001Z,73.67
2023-08-22T16:35:03.652Z,74.25
2023-08-22T16:37:33.379Z,74.85
2023-08-22T16:40:12.780Z,76.15
2023-08-22T16:42:48.569Z,76.42
2023-08-22T16:45:27.237Z,76.13
2023-08-22T16:47:59.958Z,77.10
2023-08-22T16:50:37.611Z,77.95
2023-08-22T16:53:16.869Z,77.38
2023-08-22T16:55:58.285Z,78.30
2023-08-22T16:58:39.826Z,77.71
2023-08-22T17:01:11.368Z,78.11
2023-08-22T17:03:40.836Z,78.27
2023-08-22T17:06:11.653Z,77.18
2023-08-22T17:08:43.886Z,77.24
2023-08-22T17:11:23.312Z,78.03
2023-08-22T17:13:53.296Z,77.58
2023-08-22T17:16:24.549Z,77.39
2023-08-22T17:18:57.657Z,77.55
2023-08-22T17:21:28.861Z,77.99
2023-08-22T17:23:58.979Z,77.95
2023-08-22T17:26:47.341Z,79.36
2023-08-22T17:29:17.455Z,78.87
2023-08-22T17:31:47.741Z,79.54
2023-08-22T17:34:26.243Z,79.65
2023-08-22T17:36:55.993Z,80.18
2023-08-22T17:39:27.655Z,80.58
2023-08-22T17:42:05.285Z,80.93
2023-08-22T17:44:46.446Z,79.94
2023-08-22T17:47:17.222Z,80.92
2023-08-22T17:49:49.870Z,80.90
2023-08-22T17:52:27.660Z,81.11
2023-08-22T17:54:59.915Z,82.11
2023-08-22T17:57:37.403Z,82.17
2023-08-22T18:00:18.199Z,82.21
2023-08-22T18:02:48.680Z,82.08
2023-08-22T18:05:21.805Z,82.20
2023-08-22T18:07:55.284Z,82.17
2023-08-22T18:10:26.120Z,82.31
2023-08-22T18:13:04.426Z,82.83
2023-08-22T18:15:35.617Z,82.49
2023-08-22T18:18:11.789Z,82.95
2023-08-22T18:20:44.974Z,83.13
2023-08-22T18:23:19.484Z,84.02
2023-08-22T18:25:50.810Z,84.19
2023-08-22T18:28:25.120Z,84.79
2023-08-22T18:31:00.956Z,84.59
2023-08-22T18:33:33.340Z,84.09
2023-08-22T18:36:05.186Z,83.39
2023-08-22T18:38:40.299Z,82.76
2023-08-22T18:41:24.561Z,82.39
2023-08-22T18:43:59.902Z,82.65
2023-08-22T18:46:36.160Z,82.66
2023-08-22T18:49:07.373Z,82.67
2023-08-22T18:54:20.700Z,83.13
2023-08-22T18:56:52.904Z,83.69
2023-08-22T18:59:25.993Z,84.08
2023-08-22T19:01:55.967Z,83.77
2023-08-22T19:04:27.462Z,83.79
2023-08-22T19:06:57.203Z,83.65
2023-08-22T19:09:26.649Z,83.88
2023-08-22T19:11:56.657Z,83.82
2023-08-22T19:14:38.431Z,84.04
2023-08-22T19:17:14.041Z,83.95
2023-08-22T19:19:44.563Z,83.36
2023-08-22T19:22:20.156Z,83.35
2023-08-22T19:24:49.744Z,83.36
2023-08-22T19:27:22.853Z,83.18
2023-08-22T19:30:00.287Z,83.88
2023-08-22T19:32:48.277Z,83.53
2023-08-22T19:38:00.779Z,83.41
2023-08-22T19:43:14.686Z,84.05
2023-08-22T19:45:51.894Z,84.11
2023-08-22T19:48:30.709Z,83.90
2023-08-22T19:53:40.271Z,84.82
2023-08-22T19:56:17.110Z,85.08
2023-08-22T19:58:46.953Z,84.92
2023-08-22T20:01:20.925Z,85.82
2023-08-22T20:03:50.690Z,85.57
2023-08-22T20:06:20.183Z,85.97
2023-08-22T20:09:00.292Z,85.97
2023-08-22T20:11:34.310Z,86.21
2023-08-22T20:14:05.160Z,86.17
2023-08-22T20:19:28.977Z,85.95
2023-08-22T20:21:59.001Z,86.49
2023-08-22T20:24:28.833Z,87.04
2023-08-22T20:27:09.330Z,87.26
2023-08-22T20:29:39.107Z,87.40
2023-08-22T20:32:10.599Z,88.04
2023-08-22T20:34:40.223Z,87.13
2023-08-22T20:37:15.540Z,87.44
2023-08-22T20:39:48.532Z,88.21
2023-08-22T20:42:19.190Z,88.47
2023-08-22T20:44:50.917Z,88.61
2023-08-22T20:47:22.245Z,88.39
2023-08-22T20:50:01.027Z,88.43
2023-08-22T20:52:32.254Z,88.86
2023-08-22T20:57:45.902Z,89.97
2023-08-22T21:00:19.120Z,90.25
2023-08-22T21:02:51.920Z,90.53
2023-08-22T21:07:59.670Z,90.71
2023-08-22T21:13:23.198Z,90.35
2023-08-22T21:15:53.175Z,90.85
2023-08-22T21:18:26.662Z,90.60
2023-08-22T21:21:05.772Z,91.07
2023-08-22T21:23:39.428Z,91.29
2023-08-22T21:26:09.661Z,91.41
2023-08-22T21:28:47.116Z,91.06
2023-08-22T21:31:17.309Z,91.15
2023-08-22T21:33:51.837Z,91.52
2023-08-22T21:36:23.464Z,90.78
2023-08-22T21:38:55.610Z,90.57
2023-08-22T21:41:26.571Z,90.13
2023-08-22T21:43:56.279Z,89.55
2023-08-22T21:46:26.372Z,89.17
2023-08-22T21:48:58.023Z,88.73
2023-08-22T21:51:30.566Z,88.61
2023-08-22T21:54:01.387Z,89.18
2023-08-22T21:56:31.864Z,88.94
2023-08-22T21:59:05.663Z,89.43
2023-08-22T22:01:36.008Z,89.59
2023-08-22T22:04:12.775Z,89.98
2023-08-22T22:06:46.108Z,89.77
2023-08-22T22:09:16.334Z,90.05
2023-08-22T22:11:46.058Z,90.57
2023-08-22T22:14:20.954Z,90.57
2023-08-22T22:16:52.907Z,90.84
2023-08-22T22:19:26.062Z,91.47
2023-08-22T22:21:55.818Z,90.98
2023-08-22T22:24:26.704Z,91.47
2023-08-22T22:26:57.771Z,91.54
2023-08-22T22:29:27.931Z,91.08
2023-08-22T22:31:57.493Z,91.23
2023-08-22T22:34:35.739Z,90.96
2023-08-22T22:37:06.192Z,90.65
2023-08-22T22:39:36.227Z,90.44
2023-08-22T22:42:07.496Z,91.13
2023-08-22T22:44:48.549Z,90.53
2023-08-22T22:47:21.223Z,91.05
2023-08-22T22:49:53.601Z,91.16
2023-08-22T22:52:23.382Z,90.72
2023-08-22T22:54:52.702Z,91.40
2023-08-22T23:00:05.780Z,91.32
2023-08-22T23:02:37.484Z,91.65
2023-08-22T23:05:10.346Z,91.88
2023-08-22T23:07:40.258Z,92.06
2023-08-22T23:10:12.015Z,91.98
2023-08-22T23:12:45.930Z,92.12
2023-08-22T23:15:15.690Z,91.94
2023-08-22T23:17:47.889Z,92.46
2023-08-22T23:20:25.699Z,92.43
2023-08-22T23:22:55.349Z,91.87
2023-08-22T23:25:28.389Z,91.95
2023-08-22T23:27:59.327Z,91.92
2023-08-22T23:30:29.637Z,92.22
2023-08-22T23:33:06.467Z,92.14
2023-08-22T23:35:38.461Z,92.33
2023-08-22T23:38:11.524Z,92.31
2023-08-22T23:40:46.466Z,92.50
2023-08-22T23:43:17.631Z,92.84
2023-08-22T23:45:51.228Z,92.77
2023-08-22T23:48:20.554Z,93.24
2023-08-22T23:53:39.234Z,93.40
2023-08-22T23:56:13.984Z,93.54
2023-08-22T23:58:51.283Z,93.68
